createdAt,value
2018-12-22T00:00:52.910Z,9.50
2018-12-22T00:03:20.393Z,9.60
2018-12-22T00:05:47.872Z,9.60
2018-12-22T00:08:15.369Z,9.60
2018-12-22T00:10:42.910Z,9.60
2018-12-22T00:13:10.477Z,9.60
2018-12-22T00:15:38.098Z,9.60
2018-12-22T00:18:05.588Z,9.60
2018-12-22T00:20:33.066Z,9.60
2018-12-22T00:23:00.649Z,9.60
2018-12-22T00:25:28.181Z,9.60
2018-12-22T00:27:55.650Z,9.60
2018-12-22T00:30:23.236Z,9.70
2018-12-22T00:32:50.707Z,9.70
2018-12-22T00:35:18.190Z,9.70
2018-12-22T00:37:45.669Z,9.60
2018-12-22T00:40:13.160Z,9.60
2018-12-22T00:42:40.631Z,9.60
2018-12-22T00:45:08.171Z,9.60
2018-12-22T00:47:35.690Z,9.60
2018-12-22T00:50:04.213Z,9.60
2018-12-22T00:52:31.694Z,9.60
2018-12-22T00:54:59.198Z,9.60
2018-12-22T00:57:26.666Z,9.60
2018-12-22T00:59:54.313Z,9.60
2018-12-22T01:02:21.772Z,9.60
2018-12-22T01:04:49.253Z,9.60
2018-12-22T01:07:16.834Z,9.60
2018-12-22T01:09:44.316Z,9.60
2018-12-22T01:12:12.076Z,9.60
2018-12-22T01:14:39.530Z,9.50
2018-12-22T01:17:07.093Z,9.50
2018-12-22T01:19:34.648Z,9.50
2018-12-22T01:22:02.126Z,9.60
2018-12-22T01:24:29.597Z,9.60
2018-12-22T01:26:57.088Z,9.60
2018-12-22T01:29:24.564Z,9.60
2018-12-22T01:31:52.045Z,9.60
2018-12-22T01:34:19.559Z,9.50
2018-12-22T01:36:47.094Z,9.50
2018-12-22T01:39:14.584Z,9.50
2018-12-22T01:41:42.073Z,9.40
2018-12-22T01:44:09.662Z,9.40
2018-12-22T01:46:37.191Z,9.30
2018-12-22T01:49:04.669Z,9.30
2018-12-22T01:51:32.176Z,9.30
2018-12-22T01:53:59.645Z,9.30
2018-12-22T01:56:27.161Z,9.30
2018-12-22T01:58:54.633Z,9.20
2018-12-22T02:01:22.180Z,9.20
2018-12-22T02:03:49.713Z,9.10
2018-12-22T02:06:17.207Z,9.00
2018-12-22T02:08:44.684Z,9.00
2018-12-22T02:11:12.197Z,9.00
2018-12-22T02:13:39.745Z,9.00
2018-12-22T02:16:07.200Z,9.00
2018-12-22T02:18:35.094Z,8.90
2018-12-22T02:21:02.576Z,8.90
2018-12-22T02:23:30.057Z,8.80
2018-12-22T02:25:57.541Z,8.70
2018-12-22T02:28:25.115Z,8.70
2018-12-22T02:30:52.590Z,8.70
2018-12-22T02:33:20.153Z,8.70
2018-12-22T02:35:47.639Z,8.70
2018-12-22T02:38:15.130Z,8.70
2018-12-22T02:40:42.713Z,8.70
2018-12-22T02:43:10.280Z,8.60
2018-12-22T02:45:37.941Z,8.70
2018-12-22T02:48:05.604Z,8.70
2018-12-22T02:50:33.088Z,8.70
2018-12-22T02:53:00.562Z,8.70
2018-12-22T02:55:28.044Z,8.60
2018-12-22T02:57:55.539Z,8.60
2018-12-22T03:00:23.028Z,8.60
2018-12-22T03:02:50.555Z,8.60
2018-12-22T03:05:18.028Z,8.60
2018-12-22T03:07:45.597Z,8.60
2018-12-22T03:10:13.132Z,8.60
2018-12-22T03:12:40.708Z,8.60
2018-12-22T03:15:08.186Z,8.50
2018-12-22T03:17:35.677Z,8.50
2018-12-22T03:20:04.475Z,8.50
2018-12-22T03:22:31.970Z,8.50
2018-12-22T03:24:59.540Z,8.50
2018-12-22T03:27:27.024Z,8.50
2018-12-22T03:29:54.518Z,8.50
2018-12-22T03:32:22.043Z,8.50
2018-12-22T03:34:49.501Z,8.50
2018-12-22T03:37:16.982Z,8.40
2018-12-22T03:39:44.460Z,8.40
2018-12-22T03:42:11.956Z,8.40
2018-12-22T03:44:39.541Z,8.30
2018-12-22T03:47:07.026Z,8.30
2018-12-22T03:49:34.523Z,8.40
2018-12-22T03:52:02.085Z,8.40
2018-12-22T03:54:29.644Z,8.30
2018-12-22T03:56:57.101Z,8.30
2018-12-22T03:59:25.288Z,8.30
2018-12-22T04:01:53.064Z,8.20
2018-12-22T04:04:20.605Z,8.20
2018-12-22T04:06:48.106Z,8.20
2018-12-22T04:09:15.581Z,8.20
2018-12-22T04:11:43.101Z,8.20
2018-12-22T04:14:10.591Z,8.10
2018-12-22T04:16:38.070Z,8.10
2018-12-22T04:19:05.566Z,8.10
2018-12-22T04:21:33.135Z,8.10
2018-12-22T04:24:00.699Z,8.10
2018-12-22T04:26:28.256Z,8.10
2018-12-22T04:28:55.741Z,8.10
2018-12-22T04:31:23.901Z,8.10
2018-12-22T04:33:51.435Z,8.10
2018-12-22T04:36:18.935Z,8.10
2018-12-22T04:38:46.416Z,8.10
2018-12-22T04:41:13.917Z,8.10
2018-12-22T04:43:41.486Z,8.10
2018-12-22T04:46:09.057Z,8.00
2018-12-22T04:48:36.557Z,8.00
2018-12-22T04:51:04.182Z,8.00
2018-12-22T04:53:31.699Z,8.00
2018-12-22T04:55:59.197Z,8.00
2018-12-22T04:58:26.683Z,8.00
2018-12-22T05:00:54.246Z,8.00
2018-12-22T05:03:21.783Z,8.00
2018-12-22T05:05:49.274Z,8.00
2018-12-22T05:08:16.882Z,8.00
2018-12-22T05:10:44.445Z,8.00
2018-12-22T05:13:11.929Z,8.00
2018-12-22T05:15:39.418Z,8.00
2018-12-22T05:18:06.920Z,8.00
2018-12-22T05:20:34.484Z,8.00
2018-12-22T05:23:01.952Z,8.00
2018-12-22T05:25:29.504Z,8.00
2018-12-22T05:27:56.972Z,7.90
2018-12-22T05:30:24.524Z,7.90
2018-12-22T05:32:52.016Z,7.90
2018-12-22T05:35:19.598Z,7.90
2018-12-22T05:37:47.080Z,7.90
2018-12-22T05:40:14.662Z,7.90
2018-12-22T05:42:42.232Z,7.90
2018-12-22T05:45:09.791Z,7.80
2018-12-22T05:47:37.378Z,7.80
2018-12-22T05:50:06.586Z,7.80
2018-12-22T05:52:34.117Z,7.80
2018-12-22T05:55:01.609Z,7.80
2018-12-22T05:57:29.146Z,7.80
2018-12-22T06:00:00.664Z,7.80
2018-12-22T06:02:26.215Z,7.80
2018-12-22T06:04:53.686Z,7.80
2018-12-22T06:07:21.209Z,7.80
2018-12-22T06:09:48.685Z,7.80
2018-12-22T06:12:16.182Z,7.80
2018-12-22T06:14:43.650Z,7.80
2018-12-22T06:17:11.234Z,7.80
2018-12-22T06:19:38.825Z,7.80
2018-12-22T06:22:06.296Z,7.80
2018-12-22T06:24:33.803Z,7.80
2018-12-22T06:27:01.313Z,7.80
2018-12-22T06:29:28.777Z,7.80
2018-12-22T06:31:56.329Z,7.80
2018-12-22T06:34:23.872Z,7.80
2018-12-22T06:36:51.348Z,7.70
2018-12-22T06:39:18.808Z,7.80
2018-12-22T06:41:46.296Z,7.80
2018-12-22T06:44:13.770Z,7.70
2018-12-22T06:46:41.285Z,7.70
2018-12-22T06:49:08.839Z,7.70
2018-12-22T06:51:36.396Z,7.80
2018-12-22T06:54:03.957Z,7.80
2018-12-22T06:56:31.441Z,7.70
2018-12-22T06:58:58.977Z,7.70
2018-12-22T07:01:26.542Z,7.60
2018-12-22T07:03:54.103Z,7.70
2018-12-22T07:06:21.659Z,7.70
2018-12-22T07:08:49.165Z,7.60
2018-12-22T07:11:16.688Z,7.60
2018-12-22T07:13:44.181Z,7.60
2018-12-22T07:16:11.654Z,7.60
2018-12-22T07:18:39.162Z,7.60
2018-12-22T07:21:06.660Z,7.60
2018-12-22T07:23:34.177Z,7.50
2018-12-22T07:26:01.651Z,7.50
2018-12-22T07:28:29.196Z,7.60
2018-12-22T07:30:56.778Z,7.50
2018-12-22T07:33:24.303Z,7.50
2018-12-22T07:35:51.764Z,7.50
2018-12-22T07:38:19.342Z,7.50
2018-12-22T07:40:46.809Z,7.50
2018-12-22T07:43:14.290Z,7.50
2018-12-22T07:45:41.784Z,7.50
2018-12-22T07:48:09.279Z,7.50
2018-12-22T07:50:36.756Z,7.50
2018-12-22T07:53:04.242Z,7.50
2018-12-22T07:55:31.784Z,7.50
2018-12-22T07:57:59.523Z,7.50
2018-12-22T08:00:34.613Z,7.40
2018-12-22T08:02:56.841Z,7.40
2018-12-22T08:05:24.326Z,7.30
2018-12-22T08:07:51.809Z,7.20
2018-12-22T08:10:19.290Z,7.20
2018-12-22T08:12:46.760Z,7.20
2018-12-22T08:15:14.256Z,7.20
2018-12-22T08:17:41.729Z,7.10
2018-12-22T08:20:09.235Z,7.10
2018-12-22T08:22:36.810Z,7.10
2018-12-22T08:25:04.578Z,7.10
2018-12-22T08:27:32.113Z,7.00
2018-12-22T08:29:59.652Z,7.00
2018-12-22T08:32:27.147Z,7.00
2018-12-22T08:34:54.692Z,6.90
2018-12-22T08:37:22.257Z,7.00
2018-12-22T08:39:49.742Z,6.90
2018-12-22T08:42:17.226Z,6.90
2018-12-22T08:44:44.726Z,6.90
2018-12-22T08:47:12.217Z,6.90
2018-12-22T08:49:39.750Z,7.00
2018-12-22T08:52:07.336Z,7.00
2018-12-22T08:54:34.859Z,7.00
2018-12-22T08:57:02.437Z,7.00
2018-12-22T08:59:29.917Z,7.00
2018-12-22T09:01:57.446Z,7.00
2018-12-22T09:04:25.026Z,7.00
2018-12-22T09:06:52.545Z,7.00
2018-12-22T09:09:20.002Z,7.00
2018-12-22T09:11:47.462Z,7.00
2018-12-22T09:14:15.042Z,7.00
2018-12-22T09:16:42.523Z,7.00
2018-12-22T09:19:10.078Z,7.00
2018-12-22T09:21:37.634Z,7.00
2018-12-22T09:24:05.179Z,7.00
2018-12-22T09:26:32.707Z,7.00
2018-12-22T09:29:00.177Z,7.00
2018-12-22T09:31:27.766Z,7.00
2018-12-22T09:33:55.340Z,7.00
2018-12-22T09:36:22.902Z,7.00
2018-12-22T09:38:50.436Z,7.00
2018-12-22T09:41:18.000Z,7.00
2018-12-22T09:43:45.463Z,7.10
2018-12-22T09:46:13.029Z,7.00
2018-12-22T09:48:40.548Z,7.10
2018-12-22T09:51:08.089Z,7.20
2018-12-22T09:53:35.581Z,7.20
2018-12-22T09:56:03.236Z,7.20
2018-12-22T09:58:30.727Z,7.30
2018-12-22T10:00:58.213Z,7.40
2018-12-22T10:03:25.759Z,7.40
2018-12-22T10:05:53.319Z,7.50
2018-12-22T10:08:20.869Z,7.50
2018-12-22T10:10:48.341Z,7.60
2018-12-22T10:13:15.841Z,7.60
2018-12-22T10:15:43.360Z,7.70
2018-12-22T10:18:10.934Z,7.70
2018-12-22T10:20:38.474Z,7.70
2018-12-22T10:23:05.974Z,7.70
2018-12-22T10:25:34.276Z,7.70
2018-12-22T10:28:01.758Z,7.70
2018-12-22T10:30:29.225Z,7.70
2018-12-22T10:32:56.739Z,7.60
2018-12-22T10:35:26.805Z,7.60
2018-12-22T10:37:54.308Z,7.60
2018-12-22T10:40:21.802Z,7.60
2018-12-22T10:42:49.401Z,7.50
2018-12-22T10:45:16.941Z,7.50
2018-12-22T10:47:44.481Z,7.40
2018-12-22T10:50:11.963Z,7.40
2018-12-22T10:52:39.558Z,7.40
2018-12-22T10:55:08.032Z,7.40
2018-12-22T10:57:35.531Z,7.40
2018-12-22T11:00:06.014Z,7.40
2018-12-22T11:02:33.599Z,7.40
2018-12-22T11:05:01.128Z,7.30
2018-12-22T11:07:28.697Z,7.30
2018-12-22T11:09:56.270Z,7.30
2018-12-22T11:12:24.667Z,7.40
2018-12-22T11:14:52.146Z,7.40
2018-12-22T11:17:19.633Z,7.40
2018-12-22T11:19:47.209Z,7.40
2018-12-22T11:22:14.756Z,7.30
2018-12-22T11:24:42.332Z,7.30
2018-12-22T11:27:09.893Z,7.20
2018-12-22T11:29:37.404Z,7.10
2018-12-22T11:32:04.928Z,7.10
2018-12-22T11:34:32.417Z,7.10
2018-12-22T11:36:59.914Z,7.20
2018-12-22T11:39:27.498Z,7.20
2018-12-22T11:41:55.322Z,7.20
2018-12-22T11:44:22.925Z,7.10
2018-12-22T11:46:50.531Z,7.20
2018-12-22T11:49:18.029Z,7.20
2018-12-22T11:51:45.546Z,7.30
2018-12-22T11:54:13.088Z,7.30
2018-12-22T11:56:40.589Z,7.30
2018-12-22T11:59:08.092Z,7.20
2018-12-22T12:01:43.375Z,7.20
2018-12-22T12:04:05.120Z,7.20
2018-12-22T12:06:32.621Z,7.20
2018-12-22T12:09:00.101Z,7.20
2018-12-22T12:11:28.021Z,7.20
2018-12-22T12:13:55.514Z,7.10
2018-12-22T12:16:23.800Z,7.00
2018-12-22T12:18:59.817Z,6.90
2018-12-22T12:21:27.396Z,6.80
2018-12-22T12:23:54.881Z,6.80
2018-12-22T12:26:22.361Z,6.70
2018-12-22T12:28:49.879Z,6.70
2018-12-22T12:31:17.430Z,6.70
2018-12-22T12:33:44.911Z,6.70
2018-12-22T12:36:12.393Z,6.70
2018-12-22T12:38:39.862Z,6.70
2018-12-22T12:41:07.368Z,6.70
2018-12-22T12:43:34.852Z,6.70
2018-12-22T12:46:02.381Z,6.80
2018-12-22T12:48:29.841Z,6.80
2018-12-22T12:50:57.363Z,6.70
2018-12-22T12:53:24.934Z,6.70
2018-12-22T12:55:52.460Z,6.70
2018-12-22T12:58:19.927Z,6.60
2018-12-22T13:00:47.489Z,6.60
2018-12-22T13:03:14.990Z,6.70
2018-12-22T13:05:42.601Z,6.60
2018-12-22T13:08:10.107Z,6.70
2018-12-22T13:10:37.691Z,6.70
2018-12-22T13:13:13.843Z,6.80
2018-12-22T13:15:41.429Z,6.80
2018-12-22T13:18:08.910Z,6.80
2018-12-22T13:20:36.430Z,6.90
2018-12-22T13:23:04.013Z,6.80
2018-12-22T13:25:31.565Z,6.80
2018-12-22T13:27:59.037Z,6.80
2018-12-22T13:30:26.526Z,6.80
2018-12-22T13:32:54.273Z,6.70
2018-12-22T13:35:22.032Z,6.60
2018-12-22T13:37:49.501Z,6.50
2018-12-22T13:40:16.998Z,6.50
2018-12-22T13:42:44.477Z,6.40
2018-12-22T13:45:11.965Z,6.40
2018-12-22T13:47:39.598Z,6.50
2018-12-22T13:50:11.217Z,6.40
2018-12-22T13:52:38.785Z,6.40
2018-12-22T13:55:08.392Z,6.50
2018-12-22T13:57:37.486Z,6.40
2018-12-22T14:00:10.430Z,6.40
2018-12-22T14:02:38.024Z,6.40
2018-12-22T14:05:09.233Z,6.40
2018-12-22T14:07:36.698Z,6.40
2018-12-22T14:10:07.976Z,6.40
2018-12-22T14:12:35.466Z,6.40
2018-12-22T14:15:03.549Z,6.40
2018-12-22T14:17:31.041Z,6.40
2018-12-22T14:19:58.529Z,6.30
2018-12-22T14:22:26.058Z,6.30
2018-12-22T14:24:53.519Z,6.30
2018-12-22T14:27:21.002Z,6.30
2018-12-22T14:29:48.482Z,6.20
2018-12-22T14:32:15.964Z,6.20
2018-12-22T14:34:47.334Z,6.20
2018-12-22T14:37:12.925Z,6.20
2018-12-22T14:39:40.396Z,6.20
2018-12-22T14:42:07.974Z,6.20
2018-12-22T14:44:35.475Z,6.10
2018-12-22T14:47:02.981Z,6.20
2018-12-22T14:49:30.469Z,6.20
2018-12-22T14:51:58.014Z,6.20
2018-12-22T14:54:25.523Z,6.20
2018-12-22T14:56:53.162Z,6.20
2018-12-22T14:59:20.701Z,6.20
2018-12-22T15:01:48.308Z,6.20
2018-12-22T15:04:16.011Z,6.20
2018-12-22T15:06:43.597Z,6.20
2018-12-22T15:09:13.353Z,6.20
2018-12-22T15:11:40.600Z,6.20
2018-12-22T15:14:08.173Z,6.10
2018-12-22T15:16:35.678Z,6.10
2018-12-22T15:19:03.191Z,6.20
2018-12-22T15:21:30.718Z,6.20
2018-12-22T15:23:58.210Z,6.10
2018-12-22T15:26:25.803Z,6.10
2018-12-22T15:28:53.279Z,6.00
2018-12-22T15:31:20.829Z,5.90
2018-12-22T15:33:48.420Z,5.90
2018-12-22T15:36:15.894Z,5.80
2018-12-22T15:38:43.429Z,5.90
2018-12-22T15:41:10.982Z,5.90
2018-12-22T15:43:38.552Z,5.90
2018-12-22T15:46:06.091Z,5.80
2018-12-22T15:48:33.570Z,5.80
2018-12-22T15:51:01.049Z,5.90
2018-12-22T15:53:28.545Z,5.80
2018-12-22T15:55:56.013Z,5.90
2018-12-22T15:58:23.501Z,6.00
2018-12-22T16:00:51.009Z,6.20
2018-12-22T16:03:18.518Z,6.20
2018-12-22T16:05:46.063Z,6.20
2018-12-22T16:08:13.617Z,6.20
2018-12-22T16:10:41.096Z,6.30
2018-12-22T16:13:08.589Z,6.20
2018-12-22T16:15:36.117Z,6.30
2018-12-22T16:18:03.670Z,6.30
2018-12-22T16:20:32.826Z,6.20
2018-12-22T16:23:00.640Z,6.20
2018-12-22T16:25:28.127Z,6.10
2018-12-22T16:27:59.701Z,6.00
2018-12-22T16:30:40.373Z,5.90
2018-12-22T16:33:07.878Z,5.80
2018-12-22T16:35:35.549Z,5.80
2018-12-22T16:38:03.101Z,5.80
2018-12-22T16:40:30.682Z,5.80
2018-12-22T16:42:58.197Z,5.80
2018-12-22T16:45:25.782Z,5.90
2018-12-22T16:47:53.368Z,5.90
2018-12-22T16:50:20.920Z,5.90
2018-12-22T16:52:48.399Z,5.90
2018-12-22T16:55:16.307Z,5.90
2018-12-22T17:00:48.713Z,5.90
2018-12-22T17:03:16.245Z,5.80
2018-12-22T17:05:43.749Z,5.70
2018-12-22T17:08:11.258Z,5.60
2018-12-22T17:10:38.784Z,5.70
2018-12-22T17:13:06.342Z,5.70
2018-12-22T17:15:33.933Z,5.60
2018-12-22T17:18:01.404Z,5.60
2018-12-22T17:20:29.313Z,5.60
2018-12-22T17:23:07.485Z,5.60
2018-12-22T17:25:37.879Z,5.60
2018-12-22T17:28:05.379Z,5.60
2018-12-22T17:30:32.869Z,5.70
2018-12-22T17:33:00.446Z,5.70
2018-12-22T17:35:28.026Z,5.80
2018-12-22T17:37:55.509Z,5.80
2018-12-22T17:40:23.006Z,5.80
2018-12-22T17:42:50.469Z,5.80
2018-12-22T17:45:17.952Z,5.80
2018-12-22T17:47:45.477Z,5.70
2018-12-22T17:50:12.970Z,5.60
2018-12-22T17:52:40.545Z,5.60
2018-12-22T17:55:09.653Z,5.60
2018-12-22T17:57:37.226Z,5.70
2018-12-22T18:00:09.298Z,5.80
2018-12-22T18:02:36.846Z,5.80
2018-12-22T18:05:06.229Z,5.80
2018-12-22T18:07:33.709Z,5.90
2018-12-22T18:10:01.191Z,6.00
2018-12-22T18:12:28.709Z,6.00
2018-12-22T18:14:56.208Z,6.10
2018-12-22T18:17:23.709Z,6.00
2018-12-22T18:19:51.281Z,6.00
2018-12-22T18:22:18.794Z,6.00
2018-12-22T18:24:46.295Z,5.90
2018-12-22T18:27:13.762Z,5.90
2018-12-22T18:29:41.253Z,5.80
2018-12-22T18:32:08.770Z,5.90
2018-12-22T18:34:36.254Z,5.80
2018-12-22T18:37:03.781Z,5.70
2018-12-22T18:39:31.348Z,5.80
2018-12-22T18:41:58.914Z,5.80
2018-12-22T18:44:26.398Z,5.70
2018-12-22T18:46:54.123Z,5.80
2018-12-22T18:49:21.614Z,5.80
2018-12-22T18:51:49.103Z,5.70
2018-12-22T18:54:16.841Z,5.60
2018-12-22T18:56:44.334Z,5.60
2018-12-22T18:59:12.025Z,5.50
2018-12-22T19:01:39.508Z,5.60
2018-12-22T19:04:07.068Z,5.60
2018-12-22T19:06:34.658Z,5.60
2018-12-22T19:09:02.188Z,5.50
2018-12-22T19:11:29.906Z,5.50
2018-12-22T19:13:57.410Z,5.50
2018-12-22T19:16:24.962Z,5.50
2018-12-22T19:18:52.463Z,5.50
2018-12-22T19:21:19.925Z,5.50
2018-12-22T19:23:47.433Z,5.60
2018-12-22T19:26:14.903Z,5.70
2018-12-22T19:28:42.461Z,5.80
2018-12-22T19:31:09.978Z,5.80
2018-12-22T19:33:37.494Z,5.80
2018-12-22T19:36:05.002Z,5.80
2018-12-22T19:38:32.488Z,5.90
2018-12-22T19:40:59.967Z,5.90
2018-12-22T19:43:27.462Z,5.90
2018-12-22T19:45:54.993Z,5.90
2018-12-22T19:48:22.480Z,5.90
2018-12-22T19:50:49.966Z,5.90
2018-12-22T19:53:17.458Z,5.90
2018-12-22T19:55:44.933Z,5.90
2018-12-22T19:58:12.437Z,5.90
2018-12-22T20:00:39.920Z,5.90
2018-12-22T20:03:07.412Z,5.90
2018-12-22T20:05:34.921Z,5.90
2018-12-22T20:08:02.623Z,5.90
2018-12-22T20:10:30.121Z,5.90
2018-12-22T20:12:57.600Z,5.90
2018-12-22T20:15:25.090Z,5.90
2018-12-22T20:17:52.684Z,5.90
2018-12-22T20:20:20.227Z,5.90
2018-12-22T20:22:47.724Z,5.90
2018-12-22T20:25:15.221Z,6.00
2018-12-22T20:27:42.696Z,6.00
2018-12-22T20:30:10.200Z,5.90
2018-12-22T20:32:37.668Z,6.00
2018-12-22T20:35:05.172Z,5.90
2018-12-22T20:37:32.633Z,5.90
2018-12-22T20:40:00.166Z,5.90
2018-12-22T20:42:27.771Z,5.90
2018-12-22T20:44:55.310Z,5.90
2018-12-22T20:47:22.789Z,5.90
2018-12-22T20:49:53.247Z,5.90
2018-12-22T20:52:20.773Z,5.70
2018-12-22T20:54:48.313Z,5.80
2018-12-22T20:57:15.782Z,5.80
2018-12-22T20:59:43.283Z,5.90
2018-12-22T21:02:10.767Z,5.80
2018-12-22T21:04:38.473Z,5.80
2018-12-22T21:07:05.978Z,5.80
2018-12-22T21:09:33.518Z,5.90
2018-12-22T21:12:01.040Z,5.90
2018-12-22T21:14:28.545Z,5.90
2018-12-22T21:16:56.093Z,5.90
2018-12-22T21:19:24.521Z,5.90
2018-12-22T21:21:52.056Z,5.90
2018-12-22T21:24:19.523Z,6.00
2018-12-22T21:26:47.049Z,6.00
2018-12-22T21:29:14.522Z,5.90
2018-12-22T21:31:42.029Z,6.00
2018-12-22T21:34:09.623Z,6.00
2018-12-22T21:36:37.119Z,6.00
2018-12-22T21:39:05.865Z,6.10
2018-12-22T21:41:34.439Z,6.10
2018-12-22T21:44:02.333Z,6.00
2018-12-22T21:46:30.050Z,5.90
2018-12-22T21:48:57.661Z,5.90
2018-12-22T21:51:25.249Z,5.80
2018-12-22T21:53:52.840Z,5.80
2018-12-22T21:56:20.391Z,5.80
2018-12-22T21:58:47.887Z,5.70
2018-12-22T22:01:15.389Z,5.70
2018-12-22T22:03:42.862Z,5.70
2018-12-22T22:06:10.445Z,5.60
2018-12-22T22:08:37.930Z,5.60
2018-12-22T22:11:05.432Z,5.60
2018-12-22T22:13:32.943Z,5.60
2018-12-22T22:16:00.618Z,5.50
2018-12-22T22:18:28.133Z,5.40
2018-12-22T22:20:55.737Z,5.40
2018-12-22T22:23:23.296Z,5.30
2018-12-22T22:25:50.871Z,5.20
2018-12-22T22:28:18.367Z,5.10
2018-12-22T22:30:45.894Z,5.10
2018-12-22T22:33:13.513Z,5.10
2018-12-22T22:35:41.095Z,5.10
2018-12-22T22:38:08.579Z,5.10
2018-12-22T22:40:36.107Z,5.10
2018-12-22T22:43:03.581Z,5.10
2018-12-22T22:45:31.069Z,5.20
2018-12-22T22:47:58.564Z,5.20
2018-12-22T22:50:26.039Z,5.10
2018-12-22T22:52:53.674Z,5.10
2018-12-22T22:55:21.169Z,5.20
2018-12-22T22:57:48.698Z,5.30
2018-12-22T23:00:18.371Z,5.40
2018-12-22T23:02:45.928Z,5.40
2018-12-22T23:05:13.487Z,5.40
2018-12-22T23:07:40.976Z,5.50
2018-12-22T23:10:08.582Z,5.50
2018-12-22T23:12:36.269Z,5.40
2018-12-22T23:15:04.257Z,5.40
2018-12-22T23:17:31.744Z,5.40
2018-12-22T23:19:59.266Z,5.30
2018-12-22T23:22:26.745Z,5.20
2018-12-22T23:24:54.228Z,5.20
2018-12-22T23:27:21.729Z,5.20
2018-12-22T23:29:49.207Z,5.30
2018-12-22T23:32:16.682Z,5.20
2018-12-22T23:34:44.169Z,5.30
2018-12-22T23:37:11.660Z,5.30
2018-12-22T23:39:39.212Z,5.40
2018-12-22T23:42:06.693Z,5.40
2018-12-22T23:44:34.264Z,5.60
2018-12-22T23:47:01.747Z,5.60
2018-12-22T23:49:29.258Z,5.70
2018-12-22T23:51:56.724Z,5.80
2018-12-22T23:54:24.210Z,5.80
2018-12-22T23:56:51.669Z,5.80
2018-12-22T23:59:19.160Z,5.80
